Date,TemperatureHighF,TemperatureAvgF,TemperatureLowF,DewpointHighF,DewpointAvgF,DewpointLowF,HumidityHigh,HumidityAvg,HumidityLow,PressureMaxIn,PressureMinIn,WindSpeedMaxMPH,WindSpeedAvgMPH,GustSpeedMaxMPH,PrecipitationSumIn
2012-1-1,54,50,44,34,31,28,69,48,40,30.30,30.06,30,6,30,0.13
2012-1-2,54,48,43,48,38,30,98,70,40,30.26,29.91,20,2,23,0.47
2012-1-3,52,46,40,50,44,39,100,91,75,30.31,30.16,5,0,6,0.00
2012-1-4,51,46,40,51,44,39,100,96,78,30.20,30.04,11,0,11,0.53
2012-1-5,48,42,34,46,40,34,97,91,75,30.39,30.17,11,1,11,0.03
2012-1-6,43,37,33,38,35,32,99,94,79,30.39,30.28,4,0,4,0.01
2012-1-7,45,40,36,43,39,35,99,96,88,30.48,30.35,1,0,1,0.00
2012-1-8,48,42,39,45,41,38,99,96,85,30.40,30.23,2,0,2,0.00
2012-1-9,48,43,39,48,43,39,99,98,95,30.30,30.22,6,0,6,0.12
2012-1-10,42,36,28,40,35,28,100,97,87,30.55,30.29,5,0,5,0.00
2012-1-11,36,30,26,34,29,26,99,98,92,30.55,30.41,6,0,6,0.01
2012-1-12,38,30,24,36,29,24,99,96,85,30.43,30.30,3,0,3,0.01
2012-1-13,36,30,23,34,29,22,100,97,93,30.35,30.06,1,0,1,0.00
2012-1-14,39,34,32,39,33,32,100,99,98,30.08,29.90,7,0,7,0.33
2012-1-15,36,32,27,35,31,26,100,98,92,30.12,29.99,5,0,5,0.09
2012-1-16,34,30,26,33,30,25,99,98,96,30.14,29.96,10,0,10,0.06
2012-1-17,35,33,30,35,32,30,100,98,97,29.99,29.81,5,0,10,0.23
2012-1-18,32,30,28,32,30,27,100,98,96,30.00,29.63,7,0,7,0.00
2012-1-19,28,28,27,28,27,26,98,97,96,29.80,29.59,0,0,0,0.00
2012-1-20,42,38,34,40,38,33,99,97,91,29.66,29.15,14,2,14,0.76
2012-1-21,44,41,37,42,38,34,97,89,81,29.86,29.18,16,2,17,0.46
2012-1-22,45,38,32,39,35,31,100,89,60,29.92,29.47,26,2,26,0.17
2012-1-23,45,36,31,42,34,30,100,94,76,30.07,29.84,2,0,6,0.01
2012-1-24,53,41,32,50,40,31,100,93,75,30.02,29.66,26,1,26,0.13
2012-1-25,49,43,40,43,40,37,98,87,71,30.28,29.91,13,1,16,0.18
2012-1-26,47,39,31,46,38,30,99,97,90,30.62,29.93,15,0,15,0.34
2012-1-27,40,32,27,36,31,27,99,95,77,30.66,30.51,4,0,4,0.01
2012-1-28,44,36,30,40,35,30,100,96,78,30.52,30.10,5,0,5,0.03
2012-1-29,49,46,37,49,46,37,100,99,99,30.11,29.79,8,0,8,0.76
2012-1-30,48,45,42,46,44,41,100,96,84,30.09,29.83,9,0,9,0.23
2012-1-31,50,44,41,45,42,40,99,92,69,30.09,29.90,8,0,8,0.04
2012-2-1,46,42,39,45,42,38,99,98,93,30.48,29.88,10,0,10,0.59
2012-2-2,46,38,32,43,37,31,100,96,82,30.50,30.26,7,0,7,0.00
2012-2-3,56,48,32,36,30,26,99,54,33,30.28,30.09,21,3,21,0.00
2012-2-4,59,52,44,34,28,26,59,41,30,30.20,30.12,20,3,21,0.00
2012-2-5,59,48,34,38,32,27,90,56,34,30.24,30.14,14,1,14,0.00
2012-2-6,60,44,30,35,29,24,95,61,26,30.15,29.92,20,2,24,0.00
2012-2-7,59,54,50,31,26,24,48,35,27,30.03,29.86,16,4,23,0.00
2012-2-8,51,47,42,46,41,31,93,81,48,30.29,30.03,8,0,14,0.10
2012-2-9,52,49,46,46,43,39,93,81,63,30.29,30.05,14,1,14,0.08
2012-2-10,59,52,46,46,43,39,96,72,53,30.07,29.93,15,2,17,0.04
2012-2-11,49,46,42,46,43,40,99,91,77,30.18,30.07,7,0,7,0.02
2012-2-12,49,44,41,42,40,40,100,89,73,30.15,29.90,4,0,4,0.02
2012-2-13,45,42,40,44,41,40,99,98,96,30.08,29.93,2,0,2,0.22
2012-2-14,42,39,34,40,38,34,99,98,90,30.23,29.94,4,0,4,0.12
2012-2-15,46,38,34,41,37,34,99,95,79,30.41,30.22,5,0,5,0.00
2012-2-16,45,40,34,44,40,33,99,98,96,30.32,30.22,5,0,5,0.09
2012-2-17,54,44,40,49,42,39,100,94,60,30.28,29.85,13,1,13,0.58
2012-2-18,43,41,38,41,39,37,98,94,88,30.08,29.91,14,2,14,0.77
2012-2-19,44,40,34,39,37,32,99,89,71,30.11,29.93,8,0,8,0.01
2012-2-20,44,40,33,44,38,31,99,95,87,30.04,29.89,6,0,6,0.40
2012-2-21,51,48,44,49,47,43,100,97,89,30.09,30.01,14,1,14,0.70
2012-2-22,50,45,40,48,44,39,98,93,82,30.32,29.94,13,1,13,0.23
2012-2-23,41,40,38,39,38,36,95,92,88,30.38,30.32,5,0,5,0.00
2012-2-24,45,42,38,44,40,37,98,94,85,30.31,29.70,11,0,11,0.27
2012-2-25,42,38,33,41,37,32,99,97,94,30.20,29.60,8,0,9,0.66
2012-2-26,39,34,28,38,33,28,99,97,91,30.22,30.14,6,0,6,0.09
2012-2-27,42,33,26,35,30,26,99,90,54,30.24,29.99,6,0,6,0.00
2012-2-28,45,38,29,35,29,24,98,73,46,29.99,29.48,24,3,24,0.09
2012-2-29,41,36,31,39,35,31,99,95,88,29.81,29.55,15,1,15,0.17
2012-3-1,44,38,35,37,35,34,97,89,72,30.35,29.80,6,0,6,0.01
2012-3-2,44,40,35,41,39,34,99,95,81,30.43,30.34,7,0,7,0.27
2012-3-3,56,48,42,50,44,41,100,89,67,30.38,30.33,15,1,15,0.02
2012-3-4,53,48,45,44,43,41,95,84,66,30.37,29.99,10,0,10,0.00
2012-3-5,47,41,33,44,38,31,98,90,65,29.99,29.73,12,1,12,0.24
2012-3-6,42,35,29,38,32,27,98,88,60,30.38,29.91,11,0,11,0.17
2012-3-7,46,36,26,34,28,22,97,76,38,30.50,30.38,6,0,6,0.01
2012-3-8,60,38,27,48,34,26,98,85,50,30.41,30.16,3,0,5,0.00
2012-3-9,51,42,33,46,39,32,98,89,70,30.26,30.10,6,0,6,0.05
2012-3-10,46,44,43,45,44,42,99,98,93,29.97,29.64,6,0,7,0.44
2012-3-11,43,40,35,43,38,34,99,96,83,29.80,29.59,10,0,11,0.32
2012-3-12,43,39,36,41,37,31,100,90,64,29.71,29.34,38,2,38,0.79
2012-3-13,42,35,32,39,34,32,99,95,81,29.90,29.38,16,1,16,0.32
2012-3-14,43,37,32,42,36,31,99,96,89,29.90,29.72,21,1,21,0.49
2012-3-15,50,44,41,50,44,40,99,98,93,29.72,29.50,14,1,20,0.93
2012-3-16,49,42,38,46,41,38,99,94,71,29.73,29.37,12,0,12,0.31
2012-3-17,46,40,35,42,38,34,99,96,82,29.67,29.35,7,0,7,0.28
2012-3-18,41,37,31,40,36,31,99,97,91,29.86,29.62,8,0,8,0.21
2012-3-19,46,37,28,39,33,27,99,87,55,29.92,29.67,11,0,11,0.02
2012-3-20,46,41,36,43,39,35,100,93,74,29.98,29.53,18,1,18,0.31
2012-3-21,49,41,33,37,33,24,100,78,38,30.04,29.82,9,0,9,0.02
2012-3-22,49,40,33,40,35,28,98,84,45,30.07,29.82,7,0,7,0.29
2012-3-23,55,40,28,39,32,25,98,77,33,30.08,29.98,7,0,8,0.00
2012-3-24,61,42,28,42,34,28,98,79,38,30.06,29.88,7,0,7,0.00
2012-3-25,55,44,30,48,39,30,100,85,56,29.90,29.71,8,0,8,0.00
2012-3-26,53,47,43,45,42,37,98,83,58,29.84,29.74,8,0,8,0.04
2012-3-27,60,51,40,46,40,36,95,68,47,29.76,29.50,21,3,22,0.04
2012-3-28,53,47,41,46,43,37,98,87,54,29.83,29.53,14,1,14,0.28
2012-3-29,46,44,42,46,44,42,99,98,95,29.70,29.43,9,0,9,0.94
2012-3-30,50,44,38,47,43,37,99,95,82,29.78,29.48,17,0,17,0.34
2012-3-31,47,42,38,46,41,37,99,98,93,29.73,29.40,4,0,5,0.28
2012-4-1,49,44,41,42,40,37,98,89,70,30.22,29.51,15,1,15,0.11
2012-4-2,63,51,40,41,38,34,98,65,36,30.26,29.88,18,3,18,0.00
2012-4-3,56,48,38,45,38,31,97,73,39,30.01,29.74,18,1,18,0.17
2012-4-4,52,42,34,41,37,31,99,84,46,30.11,29.97,8,0,8,0.01
2012-4-5,49,41,37,44,39,36,100,91,70,30.18,30.11,7,0,8,0.17
2012-4-6,51,42,35,42,38,34,98,87,58,30.32,30.18,8,0,8,0.05
2012-4-7,61,45,29,41,32,26,98,69,27,30.33,30.16,17,1,17,0.00
2012-4-8,68,56,40,39,32,26,91,44,22,30.19,29.99,14,1,14,0.00
2012-4-9,70,57,40,45,38,28,86,52,29,30.00,29.82,9,0,9,0.00
2012-4-10,67,54,42,50,44,39,93,71,38,29.83,29.72,9,0,11,0.00
2012-4-11,53,49,45,49,47,43,100,92,81,29.79,29.66,5,0,5,0.22
2012-4-12,61,47,38,48,44,38,99,91,48,29.84,29.70,13,0,13,0.29
2012-4-13,60,45,33,48,40,32,99,83,54,29.93,29.80,11,1,12,0.00
2012-4-14,60,48,32,46,40,32,99,79,53,30.16,29.93,15,0,15,0.00
2012-4-15,62,52,45,46,42,34,88,69,37,30.21,30.00,11,0,11,0.00
2012-4-16,59,51,42,52,45,39,98,81,56,30.22,29.88,16,1,19,0.17
2012-4-17,52,46,38,44,40,35,96,83,54,30.23,30.00,7,0,7,0.02
2012-4-18,59,49,44,48,43,38,97,81,52,30.09,29.97,10,0,11,0.14
2012-4-19,58,49,38,50,44,37,98,86,54,30.10,30.00,6,0,6,0.38
2012-4-20,56,49,42,51,46,40,99,91,59,30.27,30.03,6,0,6,0.54
2012-4-21,70,53,40,53,46,39,100,78,46,30.21,29.99,8,0,8,0.00
2012-4-22,77,59,44,57,50,43,100,75,39,30.02,29.85,8,1,8,0.00
2012-4-23,75,60,46,58,51,45,97,76,48,29.92,29.79,8,1,8,0.00
2012-4-24,57,54,51,53,51,49,97,88,75,29.94,29.82,6,0,6,0.07
2012-4-25,60,54,50,59,54,49,99,98,94,29.84,29.60,8,0,8,0.44
2012-4-26,55,50,44,49,46,37,99,88,51,30.05,29.61,12,0,12,0.37
2012-4-27,57,49,42,45,42,38,94,77,51,30.31,30.05,10,1,10,0.01
2012-4-28,62,54,46,51,46,43,96,77,56,30.31,30.19,7,0,7,0.00
2012-4-29,60,54,51,53,51,50,97,89,70,30.20,29.80,7,0,7,0.12
2012-4-30,56,50,46,51,46,41,98,87,67,29.92,29.67,16,2,16,0.49
2012-5-1,56,48,42,43,41,39,96,78,54,29.99,29.92,14,2,14,0.03
2012-5-2,56,48,42,46,41,35,97,79,49,30.03,29.77,13,0,13,0.03
2012-5-3,53,48,45,51,47,44,98,95,87,29.97,29.61,6,0,6,0.86
2012-5-4,55,46,42,47,44,40,100,92,61,30.39,29.97,14,0,14,0.40
2012-5-5,56,47,41,48,42,39,98,86,58,30.52,30.39,6,0,7,0.00
2012-5-6,66,50,34,48,41,33,98,75,42,30.52,30.37,11,1,11,0.00
2012-5-7,76,57,38,54,46,37,98,72,37,30.39,30.09,9,0,9,0.00
2012-5-8,67,55,45,52,46,38,98,74,45,30.17,30.08,9,1,10,0.00
2012-5-9,55,47,39,44,39,36,95,74,50,30.37,30.17,11,1,11,0.07
2012-5-10,56,45,33,44,36,29,98,72,37,30.45,30.33,12,0,12,0.00
2012-5-11,67,49,31,45,38,30,97,69,36,30.37,30.18,11,1,11,0.00
2012-5-12,78,57,36,49,43,35,98,65,25,30.24,30.11,9,0,9,0.00
2012-5-13,79,57,0,53,46,0,97,71,32,30.20,30.04,8,0,8,0.00
2012-5-14,82,62,44,57,50,42,97,67,37,30.08,29.96,7,0,11,0.00
2012-5-15,76,60,44,56,49,43,100,70,37,30.11,30.02,9,0,9,0.00
2012-5-16,69,57,41,51,46,39,95,68,38,30.11,30.01,14,0,14,0.00
2012-5-17,64,54,42,49,43,38,91,67,42,30.08,29.98,11,1,11,0.00
2012-5-18,60,52,43,46,42,39,91,70,50,30.20,30.06,11,1,11,0.00
2012-5-19,68,53,36,49,42,35,97,69,34,30.14,30.03,8,0,8,0.00
2012-5-20,60,56,49,59,53,45,98,90,77,30.04,29.93,4,0,4,0.25
2012-5-21,61,56,51,60,56,50,99,97,94,29.93,29.81,8,0,8,0.50
2012-5-22,54,51,48,52,49,47,99,94,80,29.96,29.89,9,0,9,0.30
2012-5-23,58,51,47,52,48,46,97,91,72,30.03,29.93,11,1,11,0.31
2012-5-24,61,52,46,53,48,44,99,86,60,30.01,29.79,8,0,8,0.22
2012-5-25,70,55,41,56,48,40,98,80,42,29.92,29.84,12,1,12,0.00
2012-5-26,75,59,42,55,48,40,98,71,31,29.96,29.83,10,1,10,0.00
2012-5-27,64,57,53,51,49,47,88,74,54,30.08,29.96,9,0,9,0.00
2012-5-28,62,55,47,53,50,45,95,83,55,30.14,30.05,11,0,11,0.04
2012-5-29,61,53,47,50,46,42,97,77,53,30.19,30.14,9,0,9,0.00
2012-5-30,68,56,46,54,48,43,95,76,48,30.26,30.15,8,0,8,0.01
2012-5-31,63,58,55,61,57,53,98,96,90,30.16,30.01,4,0,4,0.28
2012-6-1,68,61,55,65,59,54,99,95,83,30.01,29.90,10,0,10,0.26
2012-6-2,66,57,52,56,52,46,98,85,49,29.99,29.87,10,0,10,0.04
2012-6-3,61,54,48,51,46,41,92,75,51,30.02,29.90,7,0,8,0.00
2012-6-4,54,50,46,52,48,44,97,93,82,29.91,29.74,5,0,5,0.08
2012-6-5,53,49,47,52,48,46,98,97,94,30.25,29.83,6,0,6,1.42
2012-6-6,62,52,44,51,46,39,99,82,46,30.23,30.02,15,0,15,0.00
2012-6-7,57,52,48,55,49,44,98,91,76,30.02,29.83,14,0,14,0.39
2012-6-8,56,50,47,52,48,46,98,92,75,30.07,29.97,14,0,14,0.13
2012-6-9,60,53,47,54,49,46,100,89,67,30.25,30.07,9,0,9,0.05
2012-6-10,65,56,48,53,48,45,96,75,54,30.28,30.22,8,0,8,0.00
2012-6-11,75,60,44,56,50,43,98,73,38,30.23,30.07,10,0,10,0.00
2012-6-12,62,59,55,60,56,52,96,89,70,30.07,30.00,11,0,11,0.03
2012-6-13,60,56,50,55,50,47,96,83,67,30.20,30.03,8,0,10,0.01
2012-6-14,62,54,48,52,48,46,92,82,63,30.17,30.12,7,0,7,0.00
2012-6-15,73,59,44,57,50,42,98,74,39,30.21,30.14,8,0,8,0.00
2012-6-16,71,63,58,66,60,54,97,90,79,30.16,29.94,6,0,6,0.03
2012-6-17,67,61,55,61,55,48,97,80,62,29.95,29.89,15,1,16,0.02
2012-6-18,59,53,50,55,51,49,98,92,75,30.06,29.86,9,0,9,0.32
2012-6-19,65,55,49,56,51,48,98,89,63,30.19,30.06,8,0,8,0.01
2012-6-20,75,60,44,60,52,43,99,77,50,30.18,29.93,9,0,9,0.00
2012-6-21,76,62,48,64,55,48,98,78,53,29.96,29.77,7,0,7,0.00
2012-6-22,58,54,48,55,52,47,100,94,79,29.84,29.72,4,0,4,0.60
2012-6-23,63,55,49,59,54,48,99,96,81,29.97,29.72,14,0,14,0.51
2012-6-24,66,54,47,59,51,46,99,90,59,30.08,29.95,9,0,9,0.02
2012-6-25,65,54,45,57,51,44,99,88,65,30.06,29.95,7,0,7,0.01
2012-6-26,60,54,50,58,53,49,98,96,88,30.09,29.94,6,0,6,0.28
2012-6-27,72,58,42,57,50,42,99,76,44,30.10,29.92,7,0,7,0.00
2012-6-28,76,61,47,60,54,46,98,78,46,30.04,29.92,9,0,9,0.00
2012-6-29,71,63,57,64,59,56,97,88,68,30.09,30.01,6,0,6,0.01
2012-6-30,70,63,57,66,61,55,98,93,81,30.03,29.92,6,0,6,0.09
2012-7-1,64,58,55,58,55,52,96,89,72,30.09,29.98,5,0,5,0.01
2012-7-2,67,58,52,58,53,50,95,83,61,30.05,29.90,6,0,6,0.05
2012-7-3,66,57,52,54,52,49,98,84,58,30.17,29.87,14,1,14,0.35
2012-7-4,70,58,47,56,51,46,98,79,53,30.17,29.97,9,1,9,0.00
2012-7-5,76,60,44,58,51,43,100,73,41,30.06,29.98,8,0,8,0.00
2012-7-6,78,63,46,62,54,46,98,74,45,30.14,30.04,10,0,10,0.00
2012-7-7,80,65,48,63,56,47,98,75,46,30.18,30.02,12,1,12,0.00
2012-7-8,84,68,52,67,59,51,97,75,47,30.09,29.94,7,0,7,0.00
2012-7-9,78,67,57,66,60,56,96,79,62,30.12,30.02,7,0,7,0.00
2012-7-10,75,62,54,63,57,52,97,85,62,30.22,30.07,6,0,6,0.00
2012-7-11,81,66,50,67,58,50,98,77,54,30.10,29.98,11,1,11,0.00
2012-7-12,80,66,51,65,59,50,98,79,54,30.01,29.94,9,0,9,0.00
2012-7-13,73,64,58,64,60,56,96,86,67,30.06,29.96,6,0,9,0.00
2012-7-14,77,66,58,67,62,57,98,87,64,30.00,29.92,9,0,9,0.00
2012-7-15,67,62,56,61,57,53,97,84,62,29.97,29.90,12,1,12,0.00
2012-7-16,78,65,54,65,59,53,97,82,56,29.96,29.79,8,0,8,0.00
2012-7-17,74,66,60,67,63,59,97,88,73,29.93,29.80,5,0,5,0.00
2012-7-18,70,64,60,63,60,58,94,86,73,30.08,29.93,7,0,7,0.00
2012-7-19,78,67,60,68,62,57,92,83,63,30.08,29.88,9,0,9,0.00
2012-7-20,66,63,59,63,61,58,98,94,82,30.22,29.96,8,0,12,0.33
2012-7-21,74,65,60,65,60,56,98,85,63,30.23,30.08,8,0,8,0.00
2012-7-22,65,59,54,58,54,52,100,84,67,30.18,30.08,8,0,8,0.00
2012-7-23,65,58,52,58,54,51,97,89,67,30.26,30.17,6,0,6,0.02
2012-7-24,73,62,54,60,56,52,97,82,57,30.19,30.01,9,1,9,0.00
2012-7-25,81,65,50,69,59,49,98,82,58,30.05,29.91,9,0,9,0.00
2012-7-26,80,68,56,67,61,55,98,81,54,29.99,29.89,8,0,8,0.00
2012-7-27,66,62,59,61,58,57,96,88,75,30.13,29.95,8,0,8,0.00
2012-7-28,73,63,56,62,58,54,95,84,61,30.18,30.13,10,0,10,0.00
2012-7-29,73,63,55,63,57,54,96,82,59,30.20,30.10,5,0,6,0.00
2012-7-30,66,60,55,60,57,54,97,87,73,30.19,30.13,6,0,6,0.00
2012-7-31,70,62,55,61,56,53,93,83,63,30.20,30.15,7,0,7,0.00
2012-8-1,75,61,48,63,55,47,98,82,57,30.24,30.15,9,0,9,0.00
2012-8-2,73,62,52,62,57,51,97,84,62,30.20,30.12,7,0,7,0.00
2012-8-3,79,64,52,65,59,52,98,84,54,30.16,30.00,11,0,11,0.00
2012-8-4,90,71,56,69,62,55,98,76,36,30.00,29.83,7,0,7,0.00
2012-8-5,91,74,58,74,65,58,98,75,41,29.99,29.88,5,0,5,0.00
2012-8-6,81,69,60,69,63,58,95,82,61,30.10,29.99,7,0,7,0.00
2012-8-7,69,64,58,64,61,57,98,91,80,30.11,30.05,6,0,6,0.00
2012-8-8,70,64,60,61,58,55,90,80,66,30.24,30.08,6,0,6,0.00
2012-8-9,73,62,50,62,57,49,99,84,61,30.24,30.10,11,0,11,0.00
2012-8-10,77,63,49,63,56,48,98,80,49,30.16,30.05,9,1,11,0.00
2012-8-11,81,65,50,64,57,49,98,79,46,30.12,29.98,9,0,9,0.00
2012-8-12,86,68,54,70,61,53,98,80,47,30.02,29.92,9,0,9,0.00
2012-8-13,85,68,55,69,59,47,99,75,44,30.04,29.98,6,0,6,0.00
2012-8-14,82,67,53,66,58,50,95,75,51,30.03,29.89,12,1,12,0.00
2012-8-15,84,68,53,67,60,52,98,78,49,29.98,29.86,9,0,9,0.00
2012-8-16,92,72,54,68,60,53,98,70,36,29.96,29.87,8,0,8,0.00
2012-8-17,90,72,55,71,62,54,98,73,41,29.99,29.89,7,0,7,0.00
2012-8-18,77,66,57,68,62,56,98,86,68,29.99,29.87,7,0,7,0.00
2012-8-19,74,65,58,62,60,56,93,83,62,30.06,29.95,7,0,7,0.00
2012-8-20,77,66,57,62,58,55,95,77,50,30.08,29.95,7,0,7,0.00
2012-8-21,71,62,52,59,56,50,100,80,56,30.06,29.98,10,0,10,0.00
2012-8-22,72,62,56,58,54,52,95,79,52,30.14,30.05,8,0,8,0.01
2012-8-23,67,59,54,56,52,48,91,77,61,30.14,30.07,9,0,9,0.00
2012-8-24,71,57,44,53,49,43,97,75,45,30.23,30.04,11,0,11,0.00
2012-8-25,80,60,43,60,51,42,98,76,43,30.04,29.74,9,0,9,0.00
2012-8-26,74,60,47,59,53,46,98,79,54,29.98,29.76,8,0,8,0.00
2012-8-27,74,64,53,58,54,50,96,73,49,30.06,29.97,9,0,9,0.00
2012-8-28,74,61,50,57,52,46,96,74,40,30.09,30.01,9,0,9,0.00
2012-8-29,71,61,53,58,54,51,95,79,55,30.16,30.06,11,0,11,0.00
2012-8-30,73,61,51,58,54,50,97,78,50,30.08,29.90,10,0,12,0.00
2012-8-31,70,58,45,56,51,44,98,79,53,30.02,29.94,8,0,11,0.00
2012-9-1,72,57,42,55,49,41,100,77,47,30.16,30.01,7,0,7,0.00
2012-9-2,71,56,44,55,49,42,98,79,50,30.22,30.14,7,0,7,0.00
2012-9-3,73,56,42,58,50,41,98,81,54,30.21,30.12,9,0,9,0.00
2012-9-4,77,59,43,60,52,42,98,79,51,30.23,30.11,8,0,8,0.00
2012-9-5,79,62,48,61,54,47,98,79,46,30.13,29.93,11,0,11,0.00
2012-9-6,81,62,48,62,54,47,100,78,45,30.08,29.97,11,0,11,0.00
2012-9-7,88,66,47,62,53,46,100,69,25,30.15,30.02,8,1,8,0.00
2012-9-8,82,66,48,62,55,47,98,72,42,30.05,29.89,8,0,8,0.00
2012-9-9,66,62,57,56,54,51,87,76,64,30.02,29.96,9,1,9,0.00
2012-9-10,64,56,50,57,52,45,100,87,61,30.24,29.97,10,0,10,0.45
2012-9-11,66,53,44,50,45,42,97,77,46,30.34,30.24,11,1,11,0.00
2012-9-12,70,52,36,55,46,36,98,80,49,30.39,30.24,9,0,9,0.00
2012-9-13,77,57,41,59,49,40,98,77,42,30.26,30.04,6,0,6,0.00
2012-9-14,78,60,44,60,52,44,98,78,45,30.10,30.01,7,0,7,0.00
2012-9-15,74,58,45,60,52,44,98,83,52,30.19,30.07,5,0,5,0.00
2012-9-16,73,57,44,60,52,43,98,84,55,30.24,30.12,9,0,9,0.00
2012-9-17,78,60,45,62,53,44,98,81,50,30.15,30.01,7,0,7,0.00
2012-9-18,81,62,46,64,55,46,98,79,48,30.09,30.00,6,0,6,0.00
2012-9-19,76,59,47,60,54,46,98,85,53,30.18,30.06,9,0,9,0.00
2012-9-20,73,58,48,60,54,47,98,86,60,30.12,30.02,7,0,7,0.00
2012-9-21,61,58,53,56,55,52,97,90,79,30.16,30.12,7,0,7,0.00
2012-9-22,62,56,49,58,54,48,98,94,79,30.18,30.13,5,0,5,0.08
2012-9-23,66,54,44,57,50,44,99,87,60,30.18,30.11,8,0,8,0.01
2012-9-24,69,56,44,58,51,44,98,84,57,30.17,30.09,9,0,9,0.00
2012-9-25,64,55,46,56,52,45,97,89,72,30.16,30.11,6,0,6,0.00
2012-9-26,66,52,44,57,49,43,99,90,66,30.15,30.06,6,0,6,0.00
2012-9-27,70,55,45,60,51,44,99,88,61,30.10,29.95,5,0,6,0.00
2012-9-28,73,58,48,63,54,47,99,87,64,30.03,29.95,5,0,6,0.01
2012-9-29,67,58,46,56,52,44,96,82,57,30.33,30.03,6,0,6,0.00
2012-9-30,68,52,40,52,45,39,100,80,48,30.43,30.32,12,0,12,0.00
2012-10-1,74,57,39,61,50,38,98,80,47,30.38,30.11,8,0,8,0.00
2012-10-2,63,53,40,51,42,32,98,71,33,30.31,30.16,9,0,9,0.00
2012-10-3,64,46,30,42,37,29,100,75,34,30.42,30.29,9,0,9,0.00
2012-10-4,65,46,30,44,38,29,97,76,40,30.33,30.25,10,0,10,0.00
2012-10-5,69,47,31,47,37,30,100,73,25,30.33,30.21,7,0,8,0.00
2012-10-6,70,49,31,45,38,30,98,71,28,30.27,30.13,6,0,6,0.00
2012-10-7,72,51,32,49,41,31,97,74,34,30.13,29.93,7,0,7,0.00
2012-10-8,70,51,35,51,44,34,98,78,45,30.05,29.94,7,0,7,0.00
2012-10-9,56,46,38,51,44,37,100,93,80,30.15,30.05,7,0,7,0.00
2012-10-10,54,47,41,51,46,40,99,95,85,30.07,29.99,4,0,4,0.00
2012-10-11,56,50,42,51,47,41,100,91,77,30.02,29.81,7,0,7,0.00
2012-10-12,56,50,42,54,49,41,99,97,92,30.01,29.83,7,0,7,0.14
2012-10-13,57,55,54,57,54,53,99,99,98,30.16,30.01,9,0,9,0.22
2012-10-14,60,58,56,60,58,55,100,99,99,30.13,29.88,1,0,7,0.38
2012-10-15,62,58,53,62,57,53,100,98,90,29.97,29.57,7,0,9,0.26
2012-10-16,61,53,46,59,50,45,98,92,67,30.31,29.58,15,0,15,0.31
2012-10-17,54,47,39,50,45,39,99,94,76,30.37,30.23,5,0,5,0.01
2012-10-18,66,52,40,59,49,39,99,92,58,30.24,29.82,6,0,6,0.66
2012-10-19,58,54,45,57,53,45,99,95,83,29.84,29.77,12,0,12,0.31
2012-10-20,50,44,40,45,42,38,99,94,75,29.93,29.81,11,0,12,0.22
2012-10-21,49,42,36,46,41,35,100,96,81,29.91,29.81,9,0,9,0.44
2012-10-22,42,37,32,42,37,31,100,99,98,29.81,29.59,2,0,4,0.30
2012-10-23,50,43,40,47,43,39,100,98,85,29.90,29.68,6,0,6,0.07
2012-10-24,49,43,38,47,42,38,100,98,93,30.19,29.88,4,0,4,0.31
2012-10-25,50,45,41,48,44,41,99,97,85,30.43,30.19,7,0,7,0.08
2012-10-26,49,45,41,48,44,40,100,97,87,30.34,30.05,7,0,7,0.12
2012-10-27,52,49,48,49,48,47,99,97,90,30.06,29.78,13,1,13,0.50
2012-10-28,59,56,52,58,55,52,99,96,88,29.96,29.77,5,0,12,0.27
2012-10-29,62,57,52,58,55,52,100,94,79,30.03,29.73,13,0,13,0.24
2012-10-30,57,54,52,57,54,52,100,99,98,29.99,29.79,6,0,6,0.71
2012-10-31,59,55,51,59,55,51,100,100,99,29.78,29.64,4,0,4,0.23
2012-11-1,52,51,51,52,51,51,100,100,99,29.80,29.74,4,0,4,0.20
2012-11-2,58,53,49,57,53,48,100,99,96,30.06,29.98,1,0,4,0.18
2012-11-3,57,54,52,57,54,51,100,100,99,30.20,29.98,6,0,6,0.11
2012-11-4,62,57,53,61,57,53,100,99,94,30.31,30.19,6,0,6,0.34
2012-11-5,59,50,43,58,50,43,99,97,86,30.42,30.19,6,0,6,0.11
2012-11-6,57,48,40,55,47,40,100,97,87,30.20,29.98,8,0,8,0.03
2012-11-7,52,46,36,47,43,35,100,90,65,30.16,29.97,7,0,7,0.00
2012-11-8,42,36,30,41,35,30,99,97,93,29.97,29.84,4,0,4,0.01
2012-11-9,44,33,27,40,32,27,99,95,72,29.99,29.87,5,0,5,0.00
2012-11-10,42,31,26,37,30,25,100,94,75,30.26,29.99,7,0,7,0.00
2012-11-11,46,37,28,41,36,27,98,93,75,30.28,30.10,21,1,21,0.32
2012-11-12,50,45,42,49,44,40,99,97,93,30.24,30.11,8,0,9,0.06
2012-11-13,52,47,44,51,47,44,99,99,95,30.24,30.15,1,0,1,0.25
2012-11-14,49,46,40,49,45,40,100,99,97,30.33,30.19,4,0,4,0.03
2012-11-15,44,38,33,44,38,32,100,99,99,30.30,29.96,5,0,5,0.01
2012-11-16,51,41,33,46,40,33,100,97,76,29.97,29.73,9,0,9,0.05
2012-11-17,56,48,40,48,43,39,98,83,62,29.74,29.49,21,1,21,0.25
2012-11-18,47,44,40,45,43,40,99,97,88,29.79,29.55,14,1,15,0.43
2012-11-19,54,48,45,53,48,44,100,97,92,29.70,29.38,18,1,18,1.56
2012-11-20,49,44,40,49,44,40,100,99,98,29.72,29.55,9,0,9,0.13
2012-11-21,44,43,39,44,42,38,99,98,93,30.31,29.53,17,1,17,0.34
2012-11-22,51,43,35,44,38,35,100,85,55,30.39,30.21,19,1,19,0.00
2012-11-23,50,46,45,48,45,37,99,95,60,30.24,30.05,12,0,12,1.05
2012-11-24,48,44,41,48,44,40,100,99,97,30.29,30.15,2,0,2,0.04
2012-11-25,42,40,37,42,39,37,100,99,99,30.37,30.23,4,0,4,0.00
2012-11-26,45,37,32,40,35,32,100,94,62,30.26,30.06,15,1,15,0.01
2012-11-27,52,40,31,42,36,30,100,85,59,30.11,29.88,14,0,15,0.00
2012-11-28,55,44,34,44,40,34,98,85,51,29.89,29.63,17,1,17,0.10
2012-11-29,53,48,45,48,44,41,96,86,69,29.75,29.46,15,1,15,0.14
2012-11-30,57,49,46,51,47,42,99,94,70,29.50,29.39,9,0,9,0.72
2012-12-1,55,48,45,48,45,42,99,89,62,29.67,29.30,13,1,13,0.20
2012-12-2,47,45,44,45,44,43,98,95,88,29.83,29.20,14,1,14,0.55
2012-12-3,47,45,44,46,44,43,100,98,96,30.04,29.66,7,0,11,0.37
2012-12-4,52,48,44,51,47,43,98,96,87,29.86,29.56,17,1,17,0.44
2012-12-5,47,42,40,44,40,38,97,92,78,30.23,29.86,11,0,11,0.04
2012-12-6,45,43,41,42,41,40,97,94,88,30.21,30.06,9,0,9,0.04
2012-12-7,46,41,35,44,40,34,97,94,87,30.16,29.96,12,0,12,0.29
2012-12-8,40,36,33,39,35,33,98,97,96,30.38,30.15,4,0,4,0.02
2012-12-9,41,38,35,40,37,34,97,97,96,30.40,30.30,5,0,5,0.32
2012-12-10,44,42,40,43,41,40,100,97,96,30.44,30.13,1,0,1,0.01
2012-12-11,44,41,38,43,40,37,100,96,96,30.13,29.58,5,0,5,0.19
2012-12-12,42,41,39,41,39,38,100,95,95,30.05,29.63,2,0,4,0.19
2012-12-13,44,40,37,42,38,36,95,94,91,30.06,29.83,2,0,2,0.11
2012-12-14,41,37,31,39,35,30,94,94,93,29.97,29.80,2,0,4,0.27
2012-12-15,40,35,30,37,33,29,94,92,81,29.95,29.56,18,1,18,0.18
2012-12-16,41,39,38,40,37,36,98,92,90,29.76,29.00,21,1,21,0.52
2012-12-17,45,41,35,43,37,32,93,86,76,29.90,28.97,19,2,19,0.10
2012-12-18,39,36,33,36,33,31,93,90,85,30.01,29.90,9,0,9,0.07
2012-12-19,40,38,34,37,35,32,92,89,79,29.99,29.59,19,2,19,0.54
2012-12-20,42,39,31,40,36,29,92,92,90,29.85,29.54,20,0,20,0.70
2012-12-21,46,37,30,42,34,27,92,90,81,29.85,29.69,13,0,13,0.03
2012-12-22,46,41,35,44,38,32,91,90,84,29.76,29.50,15,0,15,0.07
2012-12-23,46,40,37,41,37,34,91,88,72,29.84,29.61,8,0,8,0.23
2012-12-24,43,39,36,40,37,33,90,90,89,30.18,29.84,2,0,2,0.05
2012-12-25,44,40,34,38,35,32,90,81,67,30.07,29.68,25,3,25,0.13
2012-12-26,45,42,39,41,37,33,92,84,67,29.94,29.71,9,0,9,0.16
2012-12-27,42,40,37,40,37,33,92,88,87,30.19,29.94,2,0,2,0.27
2012-12-28,46,39,35,41,35,32,92,86,73,30.19,30.12,9,0,9,0.01
2012-12-29,40,38,34,36,34,31,92,86,85,30.25,30.17,2,0,2,0.05
2012-12-30,38,35,31,34,32,27,92,86,86,30.34,30.24,5,0,5,0.00
2012-12-31,38,32,29,34,29,25,92,86,86,30.48,30.26,2,0,2,0.00
2013-1-1,38,31,25,33,27,22,92,86,70,30.52,30.35,12,0,12,0.01